Latest Coastal Weather Observations for Mallacoota

IDV60701

Issued at 10:11 pm EDT Wednesday 13 December 2017 (issued every 10 minutes, with the page automatically refreshed every 10 minutes)

About coastal observations | Map of coastal stations | Coastal observations for VIC | Marine services | Other Formats
Station Details ID: 084084 Name: MALLACOOTA Lat: -37.60 Lon: 149.73 Height: 22.0 m
Data from the previous 72 hours. | See also: Recent months at Mallacoota
Date/Time
EDT
Temp
°C
Wind Pressure Rain since
9am
mm
Weather Cloud Vis
km
Sea
Height
m
Swell
Dir  Spd
kts
Gust
kts
hPa Trend Height
m
Period
s
Dir
13/10:00pm 20.5 N 4 6 1008.2 - 0.0 - - - - - - -
13/09:30pm 21.3 N 7 9 1008.2 - 0.0 - - - - - - -
13/09:00pm 20.1 NE 5 6 1008.2 - 0.0 - - - - - - -
13/08:30pm 20.3 NE 6 9 1008.1 - 0.0 - - - - - - -
13/08:00pm 21.3 NNE 9 12 1008.0 - 0.0 - - - - - - -
13/07:30pm 21.7 NE 7 12 1007.8 - 0.0 - - - - - - -
13/07:00pm 21.8 NNE 10 15 1007.7 - 0.0 - - - - - - -
13/06:30pm 22.1 NNE 8 12 1007.5 - 0.0 - - - - - - -
13/06:00pm 23.1 NE 7 10 1007.4 - 0.0 - - - - - - -
13/05:30pm 23.6 NNE 8 11 1007.2 - 0.0 - - - - - - -
13/05:00pm 23.6 N 7 9 1007.6 - 0.0 - - - - - - -
13/04:30pm 24.5 NE 6 12 1007.7 - 0.0 - - - - - - -
13/04:00pm 24.5 NE 9 13 1008.0 - 0.0 - - - - - - -
13/03:30pm 25.0 NE 5 9 1008.2 - 0.0 - - - - - - -
13/03:00pm 24.8 NE 6 11 1008.3 - 0.0 - - - - - - -
13/02:30pm 24.4 ENE 7 12 1008.6 - 0.0 - - - - - - -
13/02:00pm 24.4 ENE 8 12 1008.8 - 0.0 - - - - - - -
13/01:30pm 24.7 E 7 11 1009.0 - 0.0 - - - - - - -
13/01:00pm 24.3 NE 7 11 1009.2 - 0.0 - - - - - - -
13/12:30pm 25.0 NE 5 10 1009.7 - 0.0 - - - - - - -
13/12:00pm 25.4 ENE 6 9 1010.0 - 0.0 - - - - - - -
13/11:30am 27.0 ENE 7 10 1010.3 - 0.0 - - - - - - -
13/11:00am 28.1 NNE 7 11 1010.6 - 0.0 - - - - - - -
13/10:30am 26.6 N 7 11 1011.0 - 0.0 - - - - - - -
13/10:00am 26.0 N 10 13 1011.3 - 0.0 - - - - - - -
13/09:30am 25.1 N 9 16 1011.8 - 0.0 - - - - - - -
13/09:00am 24.1 NNE 12 18 1012.0 - 0.0 - - - - - - -
13/08:30am 23.1 NNE 12 18 1012.3 - 0.0 - - - - - - -
13/08:00am 22.5 NNE 10 17 1012.5 - 0.0 - - - - - - -
13/07:30am 21.6 NNE 9 13 1012.4 - 0.0 - - - - - - -
13/07:00am 20.4 N 8 10 1012.6 - 0.0 - - - - - - -
13/06:30am 19.4 N 7 12 1012.5 - 0.0 - - - - - - -
13/06:00am 17.5 N 5 7 1012.5 - 0.0 - - - - - - -
13/05:30am 15.3 N 2 5 1012.4 - 0.0 - - - - - - -
13/05:00am 15.5 CALM 0 0 1012.7 - 0.0 - - - - - - -
13/04:30am 16.1 NNE 4 5 1012.8 - 0.0 - - - - - - -
13/04:00am 17.4 NNE 3 5 1013.0 - 0.0 - - - - - - -
13/03:30am 17.7 N 5 6 1013.2 - 0.0 - - - - - - -
13/03:00am 17.8 N 5 7 1013.5 - 0.0 - - - - - - -
13/02:30am 17.7 N 4 5 1013.6 - 0.0 - - - - - - -
13/02:00am 16.3 N 3 4 1013.8 - 0.0 - - - - - - -
13/01:30am 17.3 N 4 5 1014.2 - 0.0 - - - - - - -
13/01:00am 17.2 NNW 4 5 1014.6 - 0.0 - - - - - - -
13/12:30am 17.7 NNE 3 5 1014.9 - 0.0 - - - - - - -
13/12:00am 18.0 N 4 5 1015.2 - 0.0 - - - - - - -
 
Date/Time
EDT
Temp
°C
Wind Pressure Rain since
9am
mm
Weather Cloud Vis
km
Sea
Height
m
Swell
Dir  Spd
kts
Gust
kts
hPa Trend Height
m
Period
s
Dir
12/11:30pm 18.6 NNE 5 7 1015.6 - 0.0 - - - - - - -
12/11:00pm 18.4 NNE 5 8 1015.9 - 0.0 - - - - - - -
12/10:30pm 18.5 NNE 5 8 1016.0 - 0.0 - - - - - - -
12/10:00pm 18.4 N 4 6 1016.3 - 0.0 - - - - - - -
12/09:30pm 18.4 NE 4 7 1016.5 - 0.0 - - - - - - -
12/09:00pm 18.6 ENE 6 9 1016.4 - 0.0 - - - - - - -
12/08:30pm 18.5 ENE 7 10 1016.2 - 0.0 - - - - - - -
12/08:00pm 18.5 NE 6 10 1016.1 - 0.0 - - - - - - -
12/07:30pm 18.9 NE 9 13 1016.0 - 0.0 - - - - - - -
12/07:00pm 19.0 NE 10 13 1015.8 - 0.0 - - - - - - -
12/06:30pm 19.2 ENE 9 13 1015.6 - 0.0 - - - - - - -
12/06:00pm 19.6 ENE 8 14 1015.4 - 0.0 - - - - - - -
12/05:30pm 19.6 ENE 8 12 1015.4 - 0.0 - - - - - - -
12/05:00pm 19.8 ENE 9 14 1015.7 - 0.0 - - - - - - -
12/04:30pm 19.7 ENE 10 15 1015.8 - 0.0 - - - - - - -
12/04:00pm 19.5 ENE 10 14 1016.1 - 0.0 - - - - - - -
12/03:30pm 20.0 ENE 9 12 1016.3 - 0.0 - - - - - - -
12/03:00pm 19.7 ENE 10 14 1016.6 - 0.0 - - - - - - -
12/02:30pm 19.5 E 9 13 1016.9 - 0.0 - - - - - - -
12/02:00pm 18.9 E 9 13 1016.9 - 0.0 - - - - - - -
12/01:30pm 18.9 E 11 15 1017.1 - 0.0 - - - - - - -
12/01:00pm 19.2 E 9 13 1017.3 - 0.0 - - - - - - -
12/12:30pm 19.5 E 6 8 1017.6 - 0.0 - - - - - - -
12/12:00pm 19.1 E 6 7 1017.9 - 0.0 - - - - - - -
12/11:30am 19.5 E 7 8 1018.1 - 0.0 - - - - - - -
12/11:00am 19.2 E 5 7 1018.4 - 0.0 - - - - - - -
12/10:30am 18.8 SE 4 6 1018.8 - 0.0 - - - - - - -
12/10:00am 18.3 S 6 9 1018.7 - 0.0 - - - - - - -
12/09:30am 17.8 S 5 6 1019.1 - 0.0 - - - - - - -
12/09:00am 17.8 SSE 4 6 1019.3 - 0.0 - - - - - - -
12/08:30am 17.5 S 4 5 1019.2 - 0.0 - - - - - - -
12/08:00am 17.0 SSW 1 4 1019.3 - 0.0 - - - - - - -
12/07:30am 16.5 WNW 3 4 1019.0 - 0.0 - - - - - - -
12/07:00am 15.9 CALM 0 0 1018.8 - 0.0 - - - - - - -
12/06:30am 15.8 CALM 0 0 1018.7 - 0.0 - - - - - - -
12/06:00am 15.3 WSW 4 5 1018.5 - 0.0 - - - - - - -
12/05:30am 15.3 CALM 0 0 1018.3 - 0.0 - - - - - - -
12/05:00am 15.3 CALM 0 0 1018.1 - 0.0 - - - - - - -
12/04:30am 15.2 WSW 2 4 1018.2 - 0.0 - - - - - - -
12/04:00am 15.1 WNW 2 4 1018.4 - 0.0 - - - - - - -
12/03:30am 15.3 WSW 2 3 1018.6 - 0.0 - - - - - - -
12/03:00am 15.0 W 4 5 1018.8 - 0.0 - - - - - - -
12/02:30am 14.8 WNW 4 5 1019.1 - 0.0 - - - - - - -
12/02:00am 14.5 NW 5 6 1019.5 - 0.0 - - - - - - -
12/01:30am 14.5 W 4 10 1019.8 - 0.0 - - - - - - -
12/01:00am 14.4 WNW 4 5 1020.1 - 0.0 - - - - - - -
12/12:30am 14.1 WNW 4 5 1020.2 - 0.0 - - - - - - -
12/12:00am 13.7 WNW 4 6 1020.4 - 0.0 - - - - - - -
 
Date/Time
EDT
Temp
°C
Wind Pressure Rain since
9am
mm
Weather Cloud Vis
km
Sea
Height
m
Swell
Dir  Spd
kts
Gust
kts
hPa Trend Height
m
Period
s
Dir
11/11:30pm 14.1 W 4 5 1020.6 - 0.0 - - - - - - -
11/11:00pm 13.4 WNW 4 5 1020.9 - 0.0 - - - - - - -
11/10:30pm 13.7 WNW 4 6 1021.0 - 0.0 - - - - - - -
11/10:00pm 14.3 W 4 5 1020.9 - 0.0 - - - - - - -
11/09:30pm 14.1 WSW 4 5 1020.7 - 0.0 - - - - - - -
11/09:00pm 14.1 WSW 3 4 1020.4 - 0.0 - - - - - - -
11/08:30pm 15.5 SSW 2 4 1020.3 - 0.0 - - - - - - -
11/08:00pm 16.7 SSW 4 6 1020.1 - 0.0 - - - - - - -
11/07:30pm 17.7 S 4 6 1019.8 - 0.0 - - - - - - -
11/07:00pm 18.0 S 7 10 1019.6 - 0.0 - - - - - - -
11/06:30pm 18.1 S 8 11 1019.4 - 0.0 - - - - - - -
11/06:00pm 17.7 SSW 9 12 1019.1 - 0.0 - - - - - - -
11/05:30pm 17.9 SSW 9 13 1019.2 - 0.0 - - - - - - -
11/05:00pm 17.8 SSW 9 14 1019.1 - 0.0 - - - - - - -
11/04:30pm 18.1 SSW 7 11 1019.0 - 0.0 - - - - - - -
11/04:00pm 17.9 S 9 13 1019.1 - 0.0 - - - - - - -
11/03:30pm 18.2 S 9 13 1019.2 - 0.0 - - - - - - -
11/03:00pm 18.2 S 8 12 1019.4 - 0.0 - - - - - - -
11/02:30pm 18.5 S 7 11 1019.6 - 0.0 - - - - - - -
11/02:00pm 17.9 SSW 8 11 1019.9 - 0.0 - - - - - - -
11/01:30pm 18.1 S 7 10 1019.8 - 0.0 - - - - - - -
11/01:00pm 18.1 S 7 10 1020.3 - 0.0 - - - - - - -
11/12:30pm 18.1 S 5 8 1020.4 - 0.0 - - - - - - -
11/12:00pm 17.6 S 7 10 1020.5 - 0.0 - - - - - - -
11/11:30am 17.6 S 7 10 1020.7 - 0.0 - - - - - - -
11/11:00am 18.2 S 4 7 1021.0 - 0.0 - - - - - - -
11/10:30am 18.1 W 4 6 1021.3 - 0.0 - - - - - - -
11/10:00am 18.3 W 4 7 1021.0 - 0.0 - - - - - - -
11/09:30am 17.9 SW 4 6 1021.2 - 0.0 - - - - - - -
11/09:00am 18.0 NW 3 5 1021.2 - 0.0 - - - - - - -
11/08:30am 17.8 W 4 7 1021.2 - 0.0 - - - - - - -
11/08:00am 17.5 SW 6 10 1021.1 - 0.0 - - - - - - -
11/07:30am 16.9 WSW 4 7 1020.9 - 0.0 - - - - - - -
11/07:00am 16.1 W 4 5 1020.6 - 0.0 - - - - - - -
11/06:30am 15.6 W 4 6 1020.6 - 0.0 - - - - - - -
11/06:00am 15.2 WNW 5 6 1020.3 - 0.0 - - - - - - -
11/05:30am 15.3 WNW 4 5 1020.2 - 0.0 - - - - - - -
11/05:00am 15.6 NW 3 4 1019.9 - 0.0 - - - - - - -
11/04:30am 15.9 NW 3 4 1019.9 - 0.0 - - - - - - -
11/04:00am 16.1 SW 5 7 1020.0 - 0.0 - - - - - - -
11/03:30am 16.4 WSW 5 7 1020.0 - 0.0 - - - - - - -
11/03:00am 16.7 WSW 3 5 1020.0 - 0.0 - - - - - - -
11/02:30am 16.7 W 4 6 1020.4 - 0.0 - - - - - - -
11/02:00am 16.7 WSW 4 7 1020.8 - 0.0 - - - - - - -
11/01:30am 16.8 W 3 5 1021.1 - 0.0 - - - - - - -
11/01:00am 16.9 W 4 6 1021.3 - 0.0 - - - - - - -
11/12:30am 16.9 WNW 3 5 1021.7 - 0.0 - - - - - - -
11/12:00am 16.7 WNW 3 5 1021.9 - 0.0 - - - - - - -
 
Date/Time
EDT
Temp
°C
Wind Pressure Rain since
9am
mm
Weather Cloud Vis
km
Sea
Height
m
Swell
Dir  Spd
kts
Gust
kts
hPa Trend Height
m
Period
s
Dir
10/11:30pm 16.7 WNW 2 4 1022.0 - 0.0 - - - - - - -
10/11:00pm 16.7 NW 2 4 1022.1 - 0.0 - - - - - - -
10/10:30pm 16.7 W 3 5 1022.3 - 0.0 - - - - - - -

Other Formats:

Comma delimited format used in spreadsheet applications
http://www.bom.gov.au/fwo/IDV60701/IDV60701.94935.axf

JavaScript Object Notation format (JSON) in row-major order
http://www.bom.gov.au/fwo/IDV60701/IDV60701.94935.json